Terminal Aerodrome Forecast
Issued by NWS Portland, OR

Home | Current Version | Previous Version | Text Only | Print | Product List | Glossary On
Versions: 1 2 3 4 5 6 7 8 9 10 11 12 13 14 15 16 17 18 19 20 21 22 23 24 25 26 27 28 29 30 31 32 33 34
000
FTUS46 KPQR 262359 CCA
TAFTTD
TAF COR
KTTD 262359Z 2700/2724 09012KT P6SM -RA BKN025 OVC035
     FM270200 19010KT P6SM -SHRA SCT025 BKN040
     FM270400 19007KT P6SM -SHRA SCT025 BKN040=

USA.gov is the U.S. government's official web portal to all federal, state and local government web resources and services.